Clarkia, Idaho
Current Conditions -  °F | °C
As of 8:53 PM on Saturday 25 Oct 2014 (Local Time) from KMLP Reporting Station
Overcast Overcast  
Wind Chill: 42°   Ceiling: 6500
Heat Index: 47°   Visibility: 10mi
Dew Point: 31°   Wind: 12mph
Humidity: 54%   Direction: 200°SSW
Pressure: 29.67"   Gusts: 28mph
Location:  47.01°N, 116.25°W
Report Text: KMLP 260353Z AUTO 20010G24KT 10SM OVC065 08/M01 A2967 RMK AO2 SLP992 T00831006
Loading
Personal Weather Stations






























Interactive Weather Map
Tropical Storm Tracking
New forecast layout! Learn more

10-Day Weather Forecast

Advertisements
Track Severe Weather on mobile